Time;durP1;ratioP1;P1;durP2;ratioP2;P2;SDS_P1;SDS_P2;PMS_P1;PMS_P2;Temp;Humidity;BMP_temperature;BMP_pressure;BME280_temperature;BME280_humidity;BME280_pressure;Samples;Min_cycle;Max_cycle;Signal;HPM_P1;HPM_P2
2023/09/08 00:00:58;;;;;;;10.80;5.43;;;17.10;98.00;;;;;;5013744;28;20968;-68
2023/09/08 00:03:26;;;;;;;13.00;5.43;;;17.00;98.00;;;;;;5013499;28;20506;-69
2023/09/08 00:05:53;;;;;;;11.40;5.27;;;16.90;98.00;;;;;;5013622;28;20797;-68
2023/09/08 00:08:20;;;;;;;11.40;5.40;;;16.80;98.00;;;;;;5013810;28;21004;-67
2023/09/08 00:10:49;;;;;;;11.77;5.30;;;16.60;98.00;;;;;;5013620;28;20463;-68
2023/09/08 00:13:17;;;;;;;8.30;4.57;;;16.50;98.00;;;;;;5013645;28;21163;-69
2023/09/08 00:15:45;;;;;;;8.37;4.47;;;16.50;98.00;;;;;;5013452;28;20455;-67
2023/09/08 00:18:13;;;;;;;8.50;4.37;;;16.60;98.00;;;;;;5012453;28;20466;-68
2023/09/08 00:20:41;;;;;;;15.10;5.03;;;16.60;98.00;;;;;;5012249;28;20821;-68
2023/09/08 00:23:08;;;;;;;9.43;5.20;;;16.60;98.00;;;;;;5013495;28;20483;-68
2023/09/08 00:25:36;;;;;;;11.43;5.60;;;16.70;98.00;;;;;;5013195;28;20459;-69
2023/09/08 00:28:03;;;;;;;10.27;5.07;;;16.70;98.00;;;;;;5013329;28;20466;-68
2023/09/08 00:30:32;;;;;;;9.33;4.80;;;16.80;98.00;;;;;;5013276;28;20478;-68
2023/09/08 00:32:59;;;;;;;11.73;5.30;;;16.60;98.00;;;;;;5013444;28;20456;-68
2023/09/08 00:35:26;;;;;;;8.60;5.03;;;16.40;98.00;;;;;;5013296;28;20460;-68
2023/09/08 00:37:53;;;;;;;10.77;5.73;;;16.20;98.00;;;;;;5013076;28;20452;-67
2023/09/08 00:40:20;;;;;;;11.30;5.87;;;16.20;98.00;;;;;;5011942;28;20460;-67
2023/09/08 00:42:47;;;;;;;10.67;5.50;;;16.20;98.00;;;;;;5013230;28;20831;-68
2023/09/08 00:45:14;;;;;;;9.73;5.07;;;16.10;98.00;;;;;;5011918;28;20606;-67
2023/09/08 00:47:43;;;;;;;10.13;4.67;;;16.10;98.00;;;;;;5013004;28;20949;-69
2023/09/08 00:50:12;;;;;;;10.07;5.23;;;16.00;98.00;;;;;;5011995;28;20455;-68
2023/09/08 00:52:39;;;;;;;9.43;5.10;;;16.10;98.00;;;;;;5012998;28;20531;-68
2023/09/08 00:55:07;;;;;;;10.40;5.20;;;16.00;98.00;;;;;;5012967;28;20451;-68
2023/09/08 00:57:34;;;;;;;11.93;6.07;;;16.00;98.00;;;;;;5012391;28;20454;-68
2023/09/08 01:00:02;;;;;;;10.37;5.73;;;16.10;98.00;;;;;;5012996;28;20455;-68
2023/09/08 01:02:29;;;;;;;10.37;5.70;;;16.00;98.00;;;;;;5013072;28;20458;-68
2023/09/08 01:04:59;;;;;;;9.23;5.03;;;15.90;98.00;;;;;;5012592;28;20491;-68
2023/09/08 01:07:28;;;;;;;10.07;5.20;;;15.90;98.00;;;;;;5012555;28;20452;-68
2023/09/08 01:09:56;;;;;;;9.90;5.17;;;15.90;98.00;;;;;;5012717;28;20586;-68
2023/09/08 01:12:24;;;;;;;10.93;5.70;;;15.90;98.00;;;;;;5012370;28;20858;-68
2023/09/08 01:14:51;;;;;;;11.00;4.87;;;15.90;98.00;;;;;;5012508;28;20451;-68
2023/09/08 01:17:18;;;;;;;8.77;5.03;;;15.90;98.00;;;;;;5012338;28;20471;-68
2023/09/08 01:19:48;;;;;;;10.93;5.90;;;15.90;98.00;;;;;;5012444;28;20867;-67
2023/09/08 01:22:44;;;;;;;11.83;5.57;;;15.80;98.00;;;;;;5012168;28;20938;-67
2023/09/08 01:25:22;;;;;;;14.37;5.67;;;15.90;98.00;;;;;;5012311;28;20608;-67
2023/09/08 01:27:52;;;;;;;10.10;5.37;;;15.90;98.00;;;;;;5012453;28;20522;-67
2023/09/08 01:30:19;;;;;;;9.57;4.90;;;15.90;98.00;;;;;;5012084;28;20950;-67
2023/09/08 01:32:47;;;;;;;8.87;5.17;;;16.10;98.00;;;;;;5012113;28;20483;-68
2023/09/08 01:35:15;;;;;;;12.13;5.10;;;16.00;98.00;;;;;;5011851;28;21025;-67
2023/09/08 01:37:43;;;;;;;10.70;5.23;;;15.90;98.00;;;;;;5012213;28;20856;-68
2023/09/08 01:40:11;;;;;;;10.10;5.30;;;15.80;98.00;;;;;;5012181;28;20452;-68
2023/09/08 01:42:40;;;;;;;11.60;5.27;;;15.60;98.00;;;;;;5012203;28;20530;-69
2023/09/08 01:45:08;;;;;;;10.80;5.50;;;15.50;98.00;;;;;;5011973;28;20488;-69
2023/09/08 01:47:36;;;;;;;12.00;5.57;;;15.50;98.00;;;;;;5012095;28;20452;-68
2023/09/08 01:50:03;;;;;;;8.10;4.60;;;15.50;98.00;;;;;;5011978;28;20467;-68
2023/09/08 01:52:30;;;;;;;9.70;5.20;;;15.40;98.00;;;;;;5012009;28;20454;-68
2023/09/08 01:54:57;;;;;;;10.03;5.47;;;15.40;98.00;;;;;;5011758;28;20459;-67
2023/09/08 01:57:24;;;;;;;8.43;5.03;;;15.40;98.00;;;;;;5011855;28;20448;-68
2023/09/08 01:59:53;;;;;;;10.33;4.90;;;15.60;98.00;;;;;;5012019;28;20463;-68
2023/09/08 02:02:20;;;;;;;7.60;4.80;;;15.50;98.00;;;;;;5011978;28;20461;-69
2023/09/08 02:04:48;;;;;;;9.73;5.47;;;15.70;98.00;;;;;;5011969;28;20495;-68
2023/09/08 02:07:15;;;;;;;9.43;5.10;;;15.70;98.00;;;;;;5011913;28;20451;-68
2023/09/08 02:09:42;;;;;;;13.43;5.10;;;15.50;98.00;;;;;;5014977;28;20452;-67
2023/09/08 02:12:09;;;;;;;10.83;5.20;;;15.30;98.00;;;;;;5015830;28;20448;-68
2023/09/08 02:14:37;;;;;;;15.40;5.50;;;15.30;98.00;;;;;;5015889;28;20456;-67
2023/09/08 02:17:07;;;;;;;10.80;5.40;;;15.30;98.00;;;;;;4998540;28;20447;-67
2023/09/08 02:19:34;;;;;;;10.23;4.37;;;15.40;98.00;;;;;;5015808;28;20490;-67
2023/09/08 02:22:01;;;;;;;8.97;5.40;;;15.60;98.00;;;;;;5015838;28;20835;-68
2023/09/08 02:24:28;;;;;;;8.90;5.00;;;15.50;98.00;;;;;;5015566;28;20510;-68
2023/09/08 02:26:55;;;;;;;8.00;4.47;;;15.40;98.00;;;;;;5015587;28;20466;-68
2023/09/08 02:29:23;;;;;;;14.30;4.60;;;15.50;98.00;;;;;;5015496;28;20471;-68
2023/09/08 02:31:50;;;;;;;10.10;5.30;;;15.50;98.00;;;;;;5015757;28;20495;-68
2023/09/08 02:34:19;;;;;;;9.00;4.80;;;15.50;98.00;;;;;;5015645;28;20463;-70
2023/09/08 02:36:47;;;;;;;9.80;5.40;;;15.40;98.00;;;;;;5015377;28;20973;-68
2023/09/08 02:39:14;;;;;;;10.23;5.30;;;15.20;98.00;;;;;;5015518;28;20884;-67
2023/09/08 02:41:41;;;;;;;11.37;5.43;;;15.20;98.00;;;;;;5015466;28;20930;-69
2023/09/08 02:44:08;;;;;;;9.90;5.20;;;15.10;98.00;;;;;;5015479;28;20487;-67
2023/09/08 02:46:36;;;;;;;14.97;5.27;;;15.00;98.00;;;;;;5015224;28;20455;-68
2023/09/08 02:49:03;;;;;;;10.20;5.20;;;15.00;98.00;;;;;;5014156;28;20822;-67
2023/09/08 02:51:39;;;;;;;14.13;5.57;;;15.00;98.00;;;;;;5015479;28;20827;-68
2023/09/08 02:54:07;;;;;;;9.77;4.83;;;15.00;98.00;;;;;;5014875;28;20451;-67
2023/09/08 02:56:34;;;;;;;11.47;5.80;;;15.10;98.00;;;;;;5014897;28;20459;-67
2023/09/08 02:59:01;;;;;;;12.90;6.23;;;15.10;98.00;;;;;;5015420;28;20809;-67
2023/09/08 03:01:30;;;;;;;9.53;5.30;;;15.20;98.00;;;;;;5015048;28;20790;-68
2023/09/08 03:03:57;;;;;;;10.40;5.20;;;15.20;98.00;;;;;;5014574;28;21123;-68
2023/09/08 03:06:24;;;;;;;10.87;5.23;;;15.20;98.00;;;;;;5014692;28;20459;-67
2023/09/08 03:08:53;;;;;;;10.20;5.30;;;15.10;98.00;;;;;;5014918;28;20459;-67
2023/09/08 03:11:20;;;;;;;10.67;5.57;;;15.10;98.00;;;;;;5014703;28;20440;-67
2023/09/08 03:13:47;;;;;;;9.23;4.80;;;15.00;98.00;;;;;;5014729;28;20478;-68
2023/09/08 03:16:14;;;;;;;11.37;5.30;;;15.10;98.00;;;;;;5014580;28;20456;-68
2023/09/08 03:18:42;;;;;;;9.30;5.20;;;15.00;98.00;;;;;;5014579;28;21079;-68
2023/09/08 03:21:12;;;;;;;11.77;5.50;;;15.00;98.00;;;;;;5014601;28;20460;-67
2023/09/08 03:23:39;;;;;;;9.70;5.37;;;14.80;98.00;;;;;;5014373;28;20483;-68
2023/09/08 03:26:08;;;;;;;11.70;5.03;;;14.80;98.00;;;;;;5014465;28;20459;-68
2023/09/08 03:28:36;;;;;;;11.70;4.97;;;14.80;98.00;;;;;;5012992;28;20468;-68
2023/09/08 03:31:05;;;;;;;11.10;5.50;;;14.70;98.00;;;;;;5014342;28;20460;-67
2023/09/08 03:33:34;;;;;;;11.53;5.17;;;14.70;98.00;;;;;;5014054;28;20454;-68
2023/09/08 03:36:02;;;;;;;12.20;5.80;;;14.70;98.00;;;;;;5014498;28;20514;-67
2023/09/08 03:38:29;;;;;;;11.10;5.40;;;14.70;98.00;;;;;;5014188;28;20498;-69
2023/09/08 03:40:57;;;;;;;10.70;5.43;;;14.60;98.00;;;;;;5014525;28;20470;-68
2023/09/08 03:43:25;;;;;;;9.40;4.80;;;14.80;98.00;;;;;;5013110;28;20483;-67
2023/09/08 03:45:52;;;;;;;9.17;4.87;;;14.80;98.00;;;;;;5014067;28;20460;-67
2023/09/08 03:48:19;;;;;;;9.50;4.70;;;14.70;98.00;;;;;;5014187;28;20455;-67
2023/09/08 03:50:46;;;;;;;9.80;5.10;;;14.70;98.00;;;;;;5012787;28;20466;-68
2023/09/08 03:53:14;;;;;;;9.60;5.00;;;14.60;98.00;;;;;;5014084;28;20470;-69
2023/09/08 03:55:41;;;;;;;10.20;4.70;;;14.50;98.00;;;;;;5013938;28;20463;-68
2023/09/08 03:58:08;;;;;;;11.90;5.30;;;14.60;98.00;;;;;;5014056;28;20799;-68
2023/09/08 04:00:37;;;;;;;18.53;5.57;;;14.60;98.00;;;;;;5012615;28;20458;-67
2023/09/08 04:03:06;;;;;;;7.80;4.90;;;14.40;98.00;;;;;;5013907;28;20456;-68
2023/09/08 04:05:33;;;;;;;14.20;5.57;;;14.40;98.00;;;;;;5013995;28;20538;-67
2023/09/08 04:08:01;;;;;;;9.97;5.37;;;14.50;98.00;;;;;;5014082;28;20455;-68
2023/09/08 04:10:28;;;;;;;16.70;5.37;;;14.40;98.00;;;;;;5013952;28;20450;-68
2023/09/08 04:12:55;;;;;;;9.10;5.33;;;14.60;98.00;;;;;;5013843;28;20462;-67
2023/09/08 04:15:23;;;;;;;11.33;5.83;;;14.50;98.00;;;;;;5013957;28;20459;-69
2023/09/08 04:17:52;;;;;;;9.87;5.30;;;14.60;98.00;;;;;;5014002;28;20463;-68
2023/09/08 04:20:20;;;;;;;12.10;5.57;;;14.70;98.00;;;;;;5013737;28;20451;-68
2023/09/08 04:22:47;;;;;;;16.03;5.90;;;14.50;98.00;;;;;;5013705;28;20436;-67
2023/09/08 04:25:14;;;;;;;12.40;5.57;;;14.50;98.00;;;;;;5013750;28;20566;-68
2023/09/08 04:27:41;;;;;;;9.60;5.67;;;14.50;98.00;;;;;;5013329;28;20452;-68
2023/09/08 04:30:10;;;;;;;10.53;5.13;;;14.40;98.00;;;;;;5013259;28;20482;-68
2023/09/08 04:32:38;;;;;;;14.80;5.67;;;14.30;98.00;;;;;;5012744;28;20463;-68
2023/09/08 04:35:09;;;;;;;14.50;5.67;;;14.40;98.00;;;;;;5013461;28;20873;-67
2023/09/08 04:37:36;;;;;;;12.20;5.57;;;14.40;98.00;;;;;;5013078;28;20455;-68
2023/09/08 04:40:04;;;;;;;10.70;5.10;;;14.40;98.00;;;;;;5013193;28;20455;-67
2023/09/08 04:42:31;;;;;;;9.87;5.07;;;14.40;98.00;;;;;;5013060;28;20459;-68
2023/09/08 04:44:58;;;;;;;9.70;4.90;;;14.50;98.00;;;;;;5011624;28;20479;-67
2023/09/08 04:47:25;;;;;;;10.37;5.63;;;14.40;98.00;;;;;;5012847;28;20450;-68
2023/09/08 04:49:52;;;;;;;12.67;5.63;;;14.30;98.00;;;;;;5012952;28;20456;-68
2023/09/08 04:52:20;;;;;;;10.97;5.43;;;14.30;98.00;;;;;;5012989;28;20448;-67
2023/09/08 04:54:48;;;;;;;11.60;5.40;;;14.30;98.00;;;;;;5012797;28;20455;-67
2023/09/08 04:57:15;;;;;;;13.30;6.20;;;14.40;98.00;;;;;;5013005;28;20455;-68
2023/09/08 04:59:42;;;;;;;11.43;5.70;;;14.40;98.00;;;;;;5012715;28;20946;-67
2023/09/08 05:02:09;;;;;;;13.30;5.93;;;14.40;98.00;;;;;;5012685;28;20993;-67
2023/09/08 05:04:37;;;;;;;12.67;5.37;;;14.40;98.00;;;;;;5012781;28;20488;-68
2023/09/08 05:07:04;;;;;;;8.90;5.50;;;14.40;98.00;;;;;;5012472;28;20498;-67
2023/09/08 05:09:33;;;;;;;10.27;5.47;;;14.30;98.00;;;;;;5012723;28;20471;-67
2023/09/08 05:12:01;;;;;;;8.73;4.90;;;14.30;98.00;;;;;;5012618;28;20946;-67
2023/09/08 05:14:29;;;;;;;9.87;5.63;;;14.20;98.00;;;;;;5012865;28;20803;-67
2023/09/08 05:16:56;;;;;;;8.40;5.20;;;14.30;98.00;;;;;;5011270;28;20464;-68
2023/09/08 05:19:25;;;;;;;9.83;5.00;;;14.40;98.00;;;;;;5012581;28;20454;-67
2023/09/08 05:21:52;;;;;;;12.67;5.17;;;14.50;98.00;;;;;;5012550;28;20451;-67
2023/09/08 05:24:20;;;;;;;11.30;5.90;;;14.40;98.00;;;;;;5012665;28;20542;-67
2023/09/08 05:26:49;;;;;;;10.53;5.43;;;14.40;98.00;;;;;;5012550;28;20456;-69
2023/09/08 05:29:16;;;;;;;11.27;5.60;;;14.40;98.00;;;;;;5209538;23;20503;-70
2023/09/08 05:31:43;;;;;;;11.70;5.67;;;14.60;98.00;;;;;;5031123;28;20459;-69
2023/09/08 05:34:10;;;;;;;12.83;5.47;;;14.70;98.00;;;;;;5031232;28;20459;-70
2023/09/08 05:36:38;;;;;;;12.27;5.63;;;14.80;98.00;;;;;;5031174;28;20454;-70
2023/09/08 05:39:05;;;;;;;10.70;6.30;;;14.90;98.00;;;;;;5031438;28;20462;-69
2023/09/08 05:41:33;;;;;;;12.57;6.10;;;14.90;98.00;;;;;;5031293;28;20478;-70
2023/09/08 05:44:02;;;;;;;14.13;5.70;;;14.90;98.00;;;;;;5031232;28;20949;-69
2023/09/08 05:46:29;;;;;;;13.70;6.10;;;14.80;98.00;;;;;;5031110;28;20493;-69
2023/09/08 05:48:56;;;;;;;15.47;5.93;;;14.80;98.00;;;;;;5031428;28;20458;-70
2023/09/08 05:51:23;;;;;;;10.10;5.20;;;14.80;98.00;;;;;;5031150;28;20956;-70
2023/09/08 05:53:50;;;;;;;11.00;5.20;;;14.80;98.00;;;;;;5031366;28;20537;-70
2023/09/08 05:56:19;;;;;;;17.00;5.37;;;14.90;98.00;;;;;;5031291;28;20524;-70
2023/09/08 05:58:46;;;;;;;11.30;5.60;;;15.00;98.00;;;;;;5030938;28;20451;-69
2023/09/08 06:01:17;;;;;;;10.60;5.70;;;14.90;98.00;;;;;;5031145;28;20473;-69
2023/09/08 06:03:44;;;;;;;12.73;5.80;;;14.90;98.00;;;;;;5030888;28;20549;-69
2023/09/08 06:06:11;;;;;;;11.20;5.33;;;14.90;98.00;;;;;;5031029;28;20996;-69
2023/09/08 06:08:38;;;;;;;15.63;6.10;;;14.90;98.00;;;;;;5030542;28;20459;-69
2023/09/08 06:11:05;;;;;;;11.00;5.60;;;14.90;98.00;;;;;;5031134;28;20451;-69
2023/09/08 06:13:32;;;;;;;12.13;5.90;;;14.90;98.00;;;;;;5046278;28;20949;-69
2023/09/08 06:15:59;;;;;;;10.70;5.67;;;14.90;98.00;;;;;;5030790;28;20455;-69
2023/09/08 06:18:30;;;;;;;12.13;6.17;;;15.00;98.00;;;;;;5030927;28;20446;-70
2023/09/08 06:20:57;;;;;;;10.60;6.17;;;15.10;98.00;;;;;;5030420;28;20520;-70
2023/09/08 06:23:25;;;;;;;11.50;5.67;;;15.10;98.00;;;;;;5030886;28;20446;-69
2023/09/08 06:25:52;;;;;;;12.50;6.20;;;15.20;98.00;;;;;;5045361;28;20512;-69
2023/09/08 06:28:21;;;;;;;12.40;6.30;;;15.20;98.00;;;;;;5030676;28;20466;-70
2023/09/08 06:30:48;;;;;;;11.90;6.17;;;15.30;98.00;;;;;;5030616;28;20459;-69
2023/09/08 06:33:15;;;;;;;13.00;6.63;;;15.50;98.00;;;;;;5030848;28;20528;-70
2023/09/08 06:35:44;;;;;;;12.67;6.13;;;15.60;98.00;;;;;;5046053;28;20881;-70
2023/09/08 06:38:11;;;;;;;10.80;5.37;;;15.70;98.00;;;;;;5031270;28;20952;-70
2023/09/08 06:40:38;;;;;;;12.90;6.33;;;15.90;98.00;;;;;;5031356;28;20457;-70
2023/09/08 06:43:05;;;;;;;11.57;5.60;;;15.90;98.00;;;;;;5046714;28;20585;-69
2023/09/08 06:45:32;;;;;;;15.43;6.33;;;16.00;98.00;;;;;;5031181;28;20474;-69
2023/09/08 06:48:00;;;;;;;11.23;5.83;;;16.00;98.00;;;;;;5031286;28;20454;-69
2023/09/08 06:50:27;;;;;;;13.23;5.60;;;16.20;98.00;;;;;;5046460;28;20454;-69
2023/09/08 06:52:55;;;;;;;12.50;5.80;;;16.20;98.00;;;;;;5031307;28;21025;-69
2023/09/08 06:55:22;;;;;;;11.13;5.87;;;16.20;98.00;;;;;;5033550;28;20969;-69
2023/09/08 06:57:49;;;;;;;12.30;5.83;;;16.20;98.00;;;;;;5034686;28;20505;-69
2023/09/08 07:00:20;;;;;;;13.40;6.20;;;16.30;98.00;;;;;;5034922;28;20455;-66
2023/09/08 07:02:49;;;;;;;10.40;5.50;;;16.40;98.00;;;;;;5033459;28;20458;-66
2023/09/08 07:05:16;;;;;;;11.60;5.93;;;16.50;98.00;;;;;;5034643;28;20490;-67
2023/09/08 07:07:43;;;;;;;13.00;6.07;;;16.70;98.00;;;;;;5034103;28;20458;-66
2023/09/08 07:10:13;;;;;;;11.30;5.60;;;16.80;98.00;;;;;;5034512;28;20450;-66
2023/09/08 07:12:40;;;;;;;10.90;5.60;;;16.90;98.00;;;;;;5034389;28;20455;-66
2023/09/08 07:15:08;;;;;;;15.17;6.10;;;17.10;98.00;;;;;;5034349;28;20455;-66
2023/09/08 07:17:35;;;;;;;12.63;6.37;;;17.30;98.00;;;;;;5032943;28;20451;-65
2023/09/08 07:20:03;;;;;;;11.07;5.87;;;17.50;98.00;;;;;;5032787;28;20459;-66
2023/09/08 07:22:30;;;;;;;11.20;6.10;;;17.70;98.00;;;;;;5034448;28;20454;-67
2023/09/08 07:24:57;;;;;;;11.47;6.20;;;17.70;98.00;;;;;;5033200;28;20486;-67
2023/09/08 07:27:25;;;;;;;11.30;5.60;;;17.90;98.00;;;;;;5032798;28;20446;-68
2023/09/08 07:29:56;;;;;;;15.33;5.93;;;18.10;98.00;;;;;;5034201;28;20467;-67
2023/09/08 07:32:24;;;;;;;11.50;5.73;;;18.20;98.00;;;;;;5034423;28;20455;-67
2023/09/08 07:34:55;;;;;;;12.50;6.27;;;18.30;98.00;;;;;;5034279;28;20458;-67
2023/09/08 07:37:23;;;;;;;15.87;6.60;;;18.40;98.00;;;;;;5034369;28;20548;-67
2023/09/08 07:39:50;;;;;;;16.73;6.87;;;18.70;98.00;;;;;;5034214;28;20493;-68
2023/09/08 07:42:17;;;;;;;12.83;6.30;;;18.80;98.00;;;;;;5034308;28;20446;-67
2023/09/08 07:44:46;;;;;;;14.40;6.60;;;19.00;98.00;;;;;;5033964;28;20509;-67
2023/09/08 07:47:13;;;;;;;12.00;5.90;;;19.10;98.00;;;;;;5034099;28;20962;-67
2023/09/08 07:49:40;;;;;;;12.07;5.73;;;19.20;98.00;;;;;;5033574;28;20451;-66
2023/09/08 07:52:07;;;;;;;12.60;5.80;;;19.30;98.00;;;;;;5033890;28;20459;-67
2023/09/08 07:54:35;;;;;;;17.83;6.63;;;19.40;98.00;;;;;;5033546;28;20860;-66
2023/09/08 07:57:02;;;;;;;13.73;6.70;;;19.40;98.00;;;;;;5032367;28;20454;-67
2023/09/08 07:59:29;;;;;;;10.27;5.90;;;19.50;98.00;;;;;;5031331;28;20532;-68
2023/09/08 08:01:58;;;;;;;13.47;6.90;;;19.70;98.00;;;;;;5032307;28;20470;-68
2023/09/08 08:04:25;;;;;;;10.67;5.97;;;19.80;98.00;;;;;;5033393;28;20474;-66
2023/09/08 08:06:52;;;;;;;12.27;6.10;;;19.90;98.00;;;;;;5031147;28;20490;-68
2023/09/08 08:09:19;;;;;;;11.20;6.27;;;20.10;98.00;;;;;;5033154;28;20512;-66
2023/09/08 08:11:46;;;;;;;12.77;6.00;;;20.20;98.00;;;;;;5033367;28;20463;-66
2023/09/08 08:14:13;;;;;;;13.33;6.17;;;20.40;98.00;;;;;;5033377;28;20460;-67
2023/09/08 08:16:40;;;;;;;12.13;6.67;;;20.50;98.00;;;;;;5031679;28;20473;-67
2023/09/08 08:19:09;;;;;;;12.73;6.20;;;20.60;98.00;;;;;;5033288;28;20857;-67
2023/09/08 08:21:37;;;;;;;11.87;6.20;;;20.70;98.00;;;;;;5033166;28;20968;-68
2023/09/08 08:24:05;;;;;;;10.47;5.90;;;20.70;98.00;;;;;;5033188;28;20454;-68
2023/09/08 08:26:32;;;;;;;12.13;5.93;;;20.90;98.00;;;;;;5015403;28;20878;-67
2023/09/08 08:28:59;;;;;;;10.53;6.20;;;21.10;98.00;;;;;;5032956;28;20466;-67
2023/09/08 08:31:26;;;;;;;12.70;6.60;;;21.30;98.00;;;;;;5032879;28;20458;-67
2023/09/08 08:33:53;;;;;;;12.60;6.10;;;21.50;98.00;;;;;;5032914;28;20458;-67
2023/09/08 08:36:22;;;;;;;11.20;6.23;;;21.60;98.00;;;;;;5032988;28;20458;-67
2023/09/08 08:38:49;;;;;;;10.47;5.80;;;21.80;98.00;;;;;;5031597;28;20504;-66
2023/09/08 08:41:16;;;;;;;9.73;5.80;;;21.90;98.00;;;;;;5032903;28;20465;-67
2023/09/08 08:43:45;;;;;;;11.30;6.90;;;22.10;98.00;;;;;;5032898;28;20454;-68
2023/09/08 08:46:14;;;;;;;12.20;6.70;;;22.20;98.00;;;;;;5032724;28;20601;-67
2023/09/08 08:48:42;;;;;;;11.60;6.60;;;22.30;98.00;;;;;;5032754;28;20550;-68
2023/09/08 08:51:11;;;;;;;12.63;6.30;;;22.40;98.00;;;;;;5032833;28;20443;-68
2023/09/08 08:53:41;;;;;;;11.40;6.27;;;22.60;98.00;;;;;;5032666;28;20516;-68
2023/09/08 08:56:10;;;;;;;11.63;6.60;;;22.80;98.00;;;;;;5032630;28;20545;-68
2023/09/08 08:58:40;;;;;;;12.67;6.30;;;22.90;98.00;;;;;;5032636;28;21014;-68
2023/09/08 09:01:08;;;;;;;12.10;7.00;;;23.00;98.00;;;;;;5032401;28;20463;-68
2023/09/08 09:03:37;;;;;;;11.93;6.60;;;23.10;98.00;;;;;;5032548;28;20960;-68
2023/09/08 09:06:05;;;;;;;13.30;6.77;;;23.20;98.00;;;;;;5032402;28;20486;-66
2023/09/08 09:08:33;;;;;;;14.47;5.93;;;23.40;98.00;;;;;;5032674;28;20450;-65
2023/09/08 09:11:02;;;;;;;11.90;5.87;;;23.60;98.00;;;;;;5032344;28;20459;-65
2023/09/08 09:13:29;;;;;;;15.97;6.50;;;23.70;98.00;;;;;;5032591;28;20458;-65
2023/09/08 09:16:03;;;;;;;13.47;6.37;;;23.80;98.00;;;;;;5031743;28;20466;-65
2023/09/08 09:18:30;;;;;;;10.83;6.10;;;24.00;98.00;;;;;;5032204;28;20446;-66
2023/09/08 09:20:59;;;;;;;11.90;6.60;;;24.10;98.00;;;;;;5032232;28;20490;-66
2023/09/08 09:23:30;;;;;;;11.50;6.20;;;24.30;98.00;;;;;;5032317;28;20451;-65
2023/09/08 09:25:58;;;;;;;11.07;6.33;;;24.50;98.00;;;;;;5032301;28;20543;-66
2023/09/08 09:28:29;;;;;;;11.90;6.50;;;24.50;98.00;;;;;;5032204;28;20459;-65
2023/09/08 09:30:57;;;;;;;11.70;6.10;;;24.70;98.00;;;;;;5031985;28;20459;-66
2023/09/08 09:33:24;;;;;;;11.77;7.20;;;24.80;98.00;;;;;;5032253;28;20466;-65
2023/09/08 09:35:55;;;;;;;9.90;5.80;;;25.00;98.00;;;;;;5031630;28;20944;-66
2023/09/08 09:38:22;;;;;;;9.77;5.93;;;25.10;98.00;;;;;;5031875;28;20477;-66
2023/09/08 09:40:50;;;;;;;13.80;6.13;;;25.30;98.00;;;;;;5032002;28;20508;-64
2023/09/08 09:43:17;;;;;;;10.50;6.37;;;25.50;98.00;;;;;;5032064;28;20535;-65
2023/09/08 09:45:46;;;;;;;10.37;6.17;;;25.70;98.00;;;;;;5031500;28;21054;-64
2023/09/08 09:48:13;;;;;;;11.60;6.83;;;25.80;98.00;;;;;;5031655;28;20504;-68
2023/09/08 09:50:42;;;;;;;10.37;6.30;;;26.00;98.00;;;;;;5030597;28;20450;-68
2023/09/08 09:53:12;;;;;;;14.07;6.60;;;26.10;98.00;;;;;;5031837;28;20451;-68
2023/09/08 09:55:41;;;;;;;10.17;5.97;;;26.40;98.00;;;;;;5031578;28;21058;-67
2023/09/08 09:58:10;;;;;;;10.20;6.00;;;26.60;98.00;;;;;;5031600;28;20477;-70
2023/09/08 10:00:38;;;;;;;11.57;6.33;;;26.70;98.00;;;;;;5209143;22;20491;-68
2023/09/08 10:03:07;;;;;;;11.60;6.80;;;26.80;98.00;;;;;;5011661;28;20456;-68
2023/09/08 10:05:35;;;;;;;13.23;7.10;;;27.00;98.00;;;;;;5011455;28;20542;-68
2023/09/08 10:08:02;;;;;;;11.83;6.50;;;27.30;98.00;;;;;;5011545;28;21023;-70
2023/09/08 10:10:34;;;;;;;10.80;6.40;;;27.40;98.00;;;;;;5011619;28;20542;-69
2023/09/08 10:13:06;;;;;;;12.00;6.80;;;27.50;98.00;;;;;;5011775;28;20463;-68
2023/09/08 10:15:34;;;;;;;11.60;6.57;;;27.70;98.00;;;;;;5011725;28;20459;-67
2023/09/08 10:18:06;;;;;;;12.60;6.40;;;27.90;98.00;;;;;;5011502;28;20466;-65
2023/09/08 10:20:35;;;;;;;10.27;6.40;;;28.10;98.00;;;;;;5011876;28;20455;-65
2023/09/08 10:23:09;;;;;;;11.23;6.47;;;28.10;98.00;;;;;;5011529;28;20539;-65
2023/09/08 10:25:43;;;;;;;10.70;6.27;;;28.10;98.00;;;;;;5026056;28;20447;-65
2023/09/08 10:28:10;;;;;;;12.07;7.03;;;28.20;98.00;;;;;;5011557;28;20512;-64
2023/09/08 10:30:39;;;;;;;11.93;6.83;;;28.40;98.00;;;;;;5014471;28;20518;-65
2023/09/08 10:33:08;;;;;;;10.70;6.17;;;28.50;98.00;;;;;;5015442;28;20462;-65
2023/09/08 10:35:35;;;;;;;10.27;6.60;;;28.60;98.00;;;;;;5030325;28;20478;-65
2023/09/08 10:38:23;;;;;;;11.07;6.77;;;28.60;98.00;;;;;;5030315;28;20442;-64
2023/09/08 10:40:50;;;;;;;10.63;6.47;;;28.80;98.00;;;;;;5015135;28;20553;-65
2023/09/08 10:43:19;;;;;;;11.10;6.90;;;28.90;98.00;;;;;;5015286;28;20447;-65
2023/09/08 10:45:47;;;;;;;11.20;6.80;;;29.00;98.00;;;;;;5014772;28;20447;-65
2023/09/08 10:48:16;;;;;;;10.73;6.60;;;29.10;98.00;;;;;;5012045;28;20458;-64
2023/09/08 10:50:44;;;;;;;11.10;6.43;;;29.20;98.00;;;;;;5014140;28;20534;-65
2023/09/08 10:53:16;;;;;;;10.80;6.90;;;29.50;97.80;;;;;;5014339;28;20521;-65
2023/09/08 10:55:52;;;;;;;12.93;7.27;;;29.60;98.00;;;;;;5014142;28;20455;-65
2023/09/08 10:58:20;;;;;;;12.60;7.27;;;29.80;97.60;;;;;;5014246;28;20451;-65
2023/09/08 11:00:48;;;;;;;11.87;7.33;;;30.00;96.70;;;;;;5013958;28;20487;-65
2023/09/08 11:03:28;;;;;;;9.80;6.30;;;30.10;94.30;;;;;;5013081;28;20464;-65
2023/09/08 11:05:57;;;;;;;9.93;6.50;;;30.30;97.20;;;;;;5014240;28;20459;-65
2023/09/08 11:08:24;;;;;;;12.00;6.70;;;30.50;95.90;;;;;;5014283;28;20454;-65
2023/09/08 11:10:52;;;;;;;10.23;6.90;;;30.80;94.50;;;;;;5013077;28;20529;-65
2023/09/08 11:13:19;;;;;;;10.37;6.67;;;31.00;95.60;;;;;;5013937;28;20524;-66
2023/09/08 11:15:46;;;;;;;11.40;6.50;;;31.00;94.10;;;;;;5013966;28;20961;-65
2023/09/08 11:18:14;;;;;;;9.87;6.60;;;31.20;92.30;;;;;;5013844;28;20950;-65
2023/09/08 11:20:44;;;;;;;9.30;6.20;;;31.30;92.00;;;;;;5013728;28;20471;-65
2023/09/08 11:23:11;;;;;;;10.20;6.70;;;31.50;92.80;;;;;;5013838;28;20458;-66
2023/09/08 11:25:38;;;;;;;13.70;6.53;;;31.50;94.40;;;;;;5012488;28;21000;-65
2023/09/08 11:28:06;;;;;;;11.90;6.53;;;31.70;91.40;;;;;;5012466;28;20559;-64
2023/09/08 11:30:34;;;;;;;10.20;6.50;;;31.90;89.40;;;;;;5013564;28;20507;-65
2023/09/08 11:33:01;;;;;;;10.50;6.80;;;32.00;89.70;;;;;;5012276;28;20954;-65
2023/09/08 11:35:29;;;;;;;11.90;6.83;;;32.30;90.30;;;;;;5013619;28;20458;-65
2023/09/08 11:38:04;;;;;;;10.90;6.60;;;32.20;90.80;;;;;;5013328;28;20533;-65
2023/09/08 11:40:34;;;;;;;10.50;6.50;;;32.30;90.80;;;;;;5012946;28;20455;-66
2023/09/08 11:43:01;;;;;;;12.57;6.67;;;32.50;89.60;;;;;;5013405;28;20451;-65
2023/09/08 11:45:29;;;;;;;10.50;6.60;;;32.80;87.70;;;;;;5013351;28;20459;-65
2023/09/08 11:47:56;;;;;;;12.57;6.90;;;33.00;87.40;;;;;;5013276;28;20921;-65
2023/09/08 11:50:24;;;;;;;11.60;6.40;;;33.20;87.00;;;;;;5013267;28;20455;-65
2023/09/08 11:52:52;;;;;;;10.97;6.23;;;33.40;88.00;;;;;;5013298;28;20509;-65
2023/09/08 11:55:22;;;;;;;10.87;6.90;;;33.40;85.40;;;;;;5013229;28;20557;-66
2023/09/08 11:57:50;;;;;;;9.70;6.23;;;33.40;87.40;;;;;;5013122;28;20542;-66
2023/09/08 12:00:20;;;;;;;8.60;5.83;;;33.80;87.00;;;;;;5013032;28;20900;-66
2023/09/08 12:02:48;;;;;;;11.53;6.93;;;33.90;85.60;;;;;;5012916;28;20456;-65
2023/09/08 12:05:22;;;;;;;9.90;6.70;;;34.10;86.60;;;;;;5012744;28;20459;-65
2023/09/08 12:07:56;;;;;;;10.50;6.60;;;34.10;84.80;;;;;;5012785;28;20579;-65
2023/09/08 12:10:26;;;;;;;9.03;6.13;;;34.10;83.90;;;;;;5012982;28;20458;-65
2023/09/08 12:12:55;;;;;;;9.93;6.50;;;34.20;83.80;;;;;;5012911;28;20448;-66
2023/09/08 12:15:32;;;;;;;10.77;6.70;;;34.30;82.40;;;;;;5012886;28;20558;-65
2023/09/08 12:18:00;;;;;;;9.60;6.33;;;34.30;84.30;;;;;;5012856;28;20534;-65
2023/09/08 12:20:28;;;;;;;11.13;7.03;;;34.50;84.00;;;;;;5012802;28;20459;-71
2023/09/08 12:22:55;;;;;;;10.37;6.70;;;34.40;84.80;;;;;;5012805;28;21157;-68
2023/09/08 12:25:22;;;;;;;10.23;6.60;;;34.20;82.50;;;;;;5012874;28;20814;-68
2023/09/08 12:27:52;;;;;;;9.90;6.77;;;34.10;85.10;;;;;;5012375;28;20510;-68
2023/09/08 12:30:20;;;;;;;8.60;6.00;;;33.90;84.70;;;;;;5012824;28;20487;-68
2023/09/08 12:32:49;;;;;;;10.87;6.40;;;33.90;86.80;;;;;;5012526;28;20533;-68
2023/09/08 12:35:28;;;;;;;8.90;6.33;;;33.70;84.10;;;;;;5012565;28;20960;-68
2023/09/08 12:38:00;;;;;;;12.03;7.17;;;33.80;83.00;;;;;;5012580;28;20451;-68
2023/09/08 12:40:27;;;;;;;11.90;7.00;;;33.80;84.70;;;;;;5012647;28;20554;-68
2023/09/08 12:42:57;;;;;;;14.33;7.20;;;33.70;85.30;;;;;;5012686;28;20448;-68